KHYA/HYA METAR and TAF weather

Enter ICAO airport designator
Station Type Date Time Source
KHYA METAR 2020/06/03 22:56 UTC NOAA

KHYA 032256Z 22008KT 10SM CLR 23/17 A2957 RMK AO2 SLP015 T02280172


Station Type Date Time Source
KHYA Decoded METAR 2020/06/03 22:56 UTC NOAA

HYANNIS BARNSTABLE BOARDMN, MA, United States (KHYA) 41-40N 070-16W 22M
Jun 03, 2020 - 06:56 PM EDT / 2020.06.03 2256 UTC
Wind: from the SW (220 degrees) at 9 MPH (8 KT):0
Visibility: 10 mile(s):0
Sky conditions: clear
Temperature: 73.0 F (22.8 C)
Dew Point: 63.0 F (17.2 C)
Relative Humidity: 70%
Pressure (altimeter): 29.57 in. Hg (1001 hPa)
ob: KHYA 032256Z 22008KT 10SM CLR 23/17 A2957 RMK AO2 SLP015 T02280172
cycle: 23

Station Type Date Time Source
KHYA TAF 2020/06/03 18:24 UTC NOAA

TAF KHYA 031723Z 0318/0418 21013G22KT P6SM SKC
FM032200 22012KT P6SM VCSH OVC030
FM032300 23010G17KT 5SM BR OVC020
FM040300 25010G17KT 1SM BR BKN010
FM040400 25009KT 4SM BR SCT015
FM041000 25006KT P6SM BKN150

Example: see airport list